Time;durP1;ratioP1;P1;durP2;ratioP2;P2;SDS_P1;SDS_P2;PMS_P1;PMS_P2;Temp;Humidity;BMP_temperature;BMP_pressure;BME280_temperature;BME280_humidity;BME280_pressure;Samples;Min_cycle;Max_cycle;Signal;HPM_P1;HPM_P2
2023/01/24 00:00:43;;;;;;;83.30;38.70;;;;;;;1.79;90.41;102311.27;103549;1254;96943;-76
2023/01/24 00:03:21;;;;;;;89.60;37.90;;;;;;;1.78;90.24;102310.02;103453;1251;107175;-76
2023/01/24 00:05:49;;;;;;;89.20;38.40;;;;;;;1.77;90.09;102307.42;102681;1251;1003290;-76
2023/01/24 00:08:19;;;;;;;84.60;39.00;;;;;;;1.78;90.34;102308.31;103567;1251;110237;-76
2023/01/24 00:10:46;;;;;;;86.00;39.20;;;;;;;1.78;90.16;102306.80;103438;1251;138459;-75
2023/01/24 00:13:14;;;;;;;87.90;39.10;;;;;;;1.78;90.24;102311.92;103585;1255;96507;-75
2023/01/24 00:15:42;;;;;;;81.90;38.50;;;;;;;1.78;90.18;102311.75;103629;1250;107316;-76
2023/01/24 00:18:09;;;;;;;84.80;38.20;;;;;;;1.78;90.34;102308.15;103465;1253;138128;-75
2023/01/24 00:20:37;;;;;;;93.90;38.10;;;;;;;1.79;90.23;102307.50;103530;1251;110185;-75
2023/01/24 00:23:04;;;;;;;81.40;37.50;;;;;;;1.79;90.22;102303.08;103325;1250;139244;-76
2023/01/24 00:25:31;;;;;;;88.70;39.30;;;;;;;1.79;90.30;102303.73;103520;1251;96550;-76
2023/01/24 00:27:58;;;;;;;84.40;38.60;;;;;;;1.78;90.20;102301.13;103571;1251;108010;-75
2023/01/24 00:30:25;;;;;;;88.80;39.20;;;;;;;1.78;90.35;102302.31;103563;1251;96453;-76
2023/01/24 00:32:52;;;;;;;86.00;38.20;;;;;;;1.78;90.25;102300.78;103603;1250;109094;-76
2023/01/24 00:35:19;;;;;;;90.00;40.00;;;;;;;1.77;90.39;102299.73;103417;1251;138300;-75
2023/01/24 00:37:47;;;;;;;93.00;39.00;;;;;;;1.78;90.41;102295.63;103684;1255;96462;-75
2023/01/24 00:40:14;;;;;;;91.90;38.70;;;;;;;1.79;90.40;102294.30;103572;1250;139271;-75
2023/01/24 00:42:43;;;;;;;82.70;38.50;;;;;;;1.79;90.23;102296.50;103592;1250;95010;-76
2023/01/24 00:45:11;;;;;;;93.70;40.00;;;;;;;1.80;90.44;102298.12;103689;1251;110428;-76
2023/01/24 00:47:39;;;;;;;89.60;38.40;;;;;;;1.81;90.41;102300.40;102972;1256;1015184;-76
2023/01/24 00:50:08;;;;;;;85.00;37.60;;;;;;;1.81;90.46;102301.27;103645;1253;96947;-76
2023/01/24 00:52:35;;;;;;;89.70;38.90;;;;;;;1.80;90.32;102299.52;102817;1250;1002990;-75
2023/01/24 00:55:02;;;;;;;83.80;37.50;;;;;;;1.81;90.40;102296.79;103578;1251;96437;-75
2023/01/24 00:57:29;;;;;;;86.80;38.30;;;;;;;1.81;90.46;102299.54;103657;1251;110421;-76
2023/01/24 00:59:57;;;;;;;83.00;37.60;;;;;;;1.81;90.49;102304.17;103357;1252;138715;-75
2023/01/24 01:02:24;;;;;;;84.70;37.70;;;;;;;1.82;90.44;102299.75;103600;1251;96545;-75
2023/01/24 01:04:51;;;;;;;88.90;39.00;;;;;;;1.83;90.51;102300.62;103263;1256;138027;-74
2023/01/24 01:07:20;;;;;;;81.30;38.40;;;;;;;1.84;90.42;102298.09;103424;1255;96428;-75
2023/01/24 01:09:48;;;;;;;78.70;37.70;;;;;;;1.82;90.45;102299.23;102894;1252;1004294;-76
2023/01/24 01:12:15;;;;;;;84.20;38.40;;;;;;;1.83;90.50;102298.21;103432;1253;138430;-75
2023/01/24 01:14:42;;;;;;;82.10;37.40;;;;;;;1.84;90.63;102296.04;103019;1254;1003035;-75
2023/01/24 01:17:10;;;;;;;80.60;39.00;;;;;;;1.84;90.44;102297.73;103551;1251;139910;-75
2023/01/24 01:19:37;;;;;;;79.90;37.30;;;;;;;1.84;90.50;102296.04;103605;1250;97010;-77
2023/01/24 01:22:04;;;;;;;78.90;37.10;;;;;;;1.85;90.45;102302.77;103635;1254;108779;-76
2023/01/24 01:24:31;;;;;;;82.80;37.10;;;;;;;1.87;90.51;102305.21;103484;1250;108704;-76
2023/01/24 01:26:58;;;;;;;85.20;36.90;;;;;;;1.87;90.39;102305.05;103013;1250;1003616;-76
2023/01/24 01:29:27;;;;;;;78.30;35.80;;;;;;;1.88;90.42;102302.00;103721;1251;138775;-76
2023/01/24 01:31:54;;;;;;;80.20;36.10;;;;;;;1.89;90.32;102305.98;103931;1251;95002;-78
2023/01/24 01:34:22;;;;;;;76.40;37.50;;;;;;;1.87;90.08;102307.11;103604;1250;138146;-75
2023/01/24 01:36:49;;;;;;;77.70;37.50;;;;;;;1.88;90.38;102304.55;103631;1252;109548;-75
2023/01/24 01:39:16;;;;;;;85.00;37.60;;;;;;;1.88;90.25;102301.98;103506;1250;96723;-76
2023/01/24 01:41:43;;;;;;;80.60;36.30;;;;;;;1.88;90.42;102305.60;102698;1251;1003064;-75
2023/01/24 01:44:43;;;;;;;77.00;36.90;;;;;;;1.88;90.28;102304.39;103394;1255;96421;-76
2023/01/24 01:47:24;;;;;;;81.20;37.30;;;;;;;1.88;90.39;102303.20;103458;1255;138233;-75
2023/01/24 01:49:58;;;;;;;86.10;38.30;;;;;;;1.90;90.44;102301.37;103637;1251;108348;-76
2023/01/24 01:52:31;;;;;;;86.30;38.70;;;;;;;1.90;90.36;102300.20;103421;1253;138503;-75
2023/01/24 01:55:02;;;;;;;84.90;37.90;;;;;;;1.91;90.37;102301.74;103581;1254;108646;-75
2023/01/24 01:57:32;;;;;;;79.10;35.90;;;;;;;1.91;90.23;102299.88;103792;1250;96494;-75
2023/01/24 02:00:04;;;;;;;83.70;36.50;;;;;;;1.92;90.30;102297.84;103500;1251;138058;-75
2023/01/24 02:02:39;;;;;;;84.20;38.40;;;;;;;1.90;90.30;102294.70;103487;1250;106638;-76
2023/01/24 02:05:10;;;;;;;79.40;36.10;;;;;;;1.91;90.30;102294.71;103396;1254;138304;-77
2023/01/24 02:07:44;;;;;;;86.10;37.70;;;;;;;1.91;90.30;102292.67;103629;1256;108007;-77
2023/01/24 02:10:13;;;;;;;83.80;37.90;;;;;;;1.93;90.53;102288.44;103791;1250;138775;-76
2023/01/24 02:12:43;;;;;;;82.40;36.90;;;;;;;1.96;90.76;102292.67;103616;1251;110297;-77
2023/01/24 02:18:00;;;;;;;77.40;37.20;;;;;;;1.99;90.71;102287.48;102726;1254;1003045;-76
2023/01/24 02:20:38;;;;;;;82.40;36.50;;;;;;;2.01;90.71;102281.39;103327;1256;272289;-77
2023/01/24 02:23:28;;;;;;;81.70;36.70;;;;;;;2.02;90.77;102276.61;103470;1254;138382;-77
2023/01/24 02:26:05;;;;;;;82.90;38.20;;;;;;;2.03;90.76;102274.92;103558;1253;109235;-76
2023/01/24 02:28:33;;;;;;;84.60;37.50;;;;;;;2.04;90.81;102275.99;102635;1256;1002916;-75
2023/01/24 02:31:02;;;;;;;81.50;37.40;;;;;;;2.06;90.95;102273.65;102720;1256;1003002;-76
2023/01/24 02:33:30;;;;;;;83.40;37.20;;;;;;;2.06;90.78;102267.65;103554;1253;107282;-75
2023/01/24 02:36:15;;;;;;;82.90;36.20;;;;;;;2.05;90.63;102267.64;103330;1251;138251;-75
2023/01/24 02:38:46;;;;;;;81.90;36.40;;;;;;;2.03;90.67;102271.51;103551;1254;109949;-76
2023/01/24 02:41:14;;;;;;;80.90;37.10;;;;;;;2.01;90.35;102275.20;103496;1251;138226;-76
2023/01/24 02:43:46;;;;;;;77.80;35.70;;;;;;;1.98;90.28;102272.70;103596;1250;96993;-75
2023/01/24 02:46:14;;;;;;;78.80;37.10;;;;;;;1.95;90.21;102272.89;103407;1251;138292;-75
2023/01/24 02:48:41;;;;;;;81.90;36.50;;;;;;;1.92;90.37;102271.60;103653;1250;96318;-77
2023/01/24 02:53:53;;;;;;;80.90;37.00;;;;;;;1.91;90.58;102274.48;103355;1251;138532;-77
2023/01/24 02:59:13;;;;;;;78.20;35.60;;;;;;;1.89;90.54;102276.15;103036;1259;138417;-77
2023/01/24 03:01:41;;;;;;;75.20;35.90;;;;;;;1.89;90.63;102275.61;103074;1256;96780;-77
2023/01/24 03:04:10;;;;;;;75.40;34.90;;;;;;;1.89;90.59;102278.17;103038;1256;138171;-75
2023/01/24 03:06:38;;;;;;;82.60;36.00;;;;;;;1.88;90.49;102281.40;102255;1262;1002610;-76
2023/01/24 03:09:18;;;;;;;71.30;33.90;;;;;;;1.86;90.63;102288.91;103136;1256;96491;-76
2023/01/24 03:11:48;;;;;;;74.70;33.90;;;;;;;1.86;90.63;102288.52;103050;1257;138192;-76
2023/01/24 03:36:31;;;;;;;74.60;35.80;;;;;;;1.81;90.93;102286.67;103457;1250;138934;-76
2023/01/24 03:41:45;;;;;;;72.50;34.30;;;;;;;1.82;91.14;102288.25;102734;1256;1003702;-75
2023/01/24 03:44:12;;;;;;;74.70;35.20;;;;;;;1.83;91.29;102287.41;102924;1251;1002851;-76
2023/01/24 03:46:40;;;;;;;78.80;35.70;;;;;;;1.84;91.02;102290.52;103478;1251;138550;-76
2023/01/24 03:49:09;;;;;;;77.40;35.30;;;;;;;1.83;91.08;102288.44;103234;1251;1002885;-76
2023/01/24 03:54:22;;;;;;;70.70;33.80;;;;;;;1.85;91.25;102287.48;102745;1251;1003392;-76
2023/01/24 03:57:02;;;;;;;75.90;35.90;;;;;;;1.87;91.23;102283.25;103505;1251;111902;-76
2023/01/24 03:59:29;;;;;;;76.70;35.70;;;;;;;1.87;91.37;102285.00;103737;1254;138204;-75
2023/01/24 04:01:57;;;;;;;70.40;35.00;;;;;;;1.88;91.36;102288.64;103550;1255;96936;-76
2023/01/24 04:05:12;;;;;;;71.50;35.30;;;;;;;1.89;91.23;102289.15;103420;1255;139723;-76
2023/01/24 04:07:15;;;;;;;69.80;34.80;;;;;;;1.88;91.08;102291.38;103850;1251;96427;-77
2023/01/24 04:09:54;;;;;;;69.20;35.50;;;;;;;1.88;91.16;102293.08;103560;1251;109701;-76
2023/01/24 04:12:21;;;;;;;73.80;35.20;;;;;;;1.87;91.13;102294.60;103384;1255;138138;-76
2023/01/24 04:14:49;;;;;;;80.70;35.70;;;;;;;1.86;91.05;102299.02;103565;1250;96354;-77
2023/01/24 04:17:16;;;;;;;81.10;37.90;;;;;;;1.86;91.01;102300.03;103655;1250;138127;-76
2023/01/24 04:19:47;;;;;;;77.80;35.30;;;;;;;1.86;91.18;102300.90;103423;1256;96635;-77
2023/01/24 04:22:15;;;;;;;68.40;34.00;;;;;;;1.85;91.10;102297.27;103532;1251;138575;-75
2023/01/24 04:24:43;;;;;;;75.70;33.90;;;;;;;1.84;90.99;102301.88;103493;1256;107545;-77
2023/01/24 04:27:11;;;;;;;70.40;34.60;;;;;;;1.84;91.31;102302.55;103457;1250;96434;-77
2023/01/24 04:29:58;;;;;;;73.20;34.90;;;;;;;1.85;91.24;102301.88;103349;1254;138001;-77
2023/01/24 04:32:29;;;;;;;69.60;33.90;;;;;;;1.84;91.39;102296.55;103642;1255;96437;-77
2023/01/24 04:35:04;;;;;;;72.80;34.60;;;;;;;1.86;91.29;102299.00;103264;1256;138215;-77
2023/01/24 04:37:47;;;;;;;72.80;34.40;;;;;;;1.86;91.53;102295.08;103419;1256;107789;-77
2023/01/24 04:40:18;;;;;;;73.70;33.30;;;;;;;1.88;91.52;102297.36;103300;1256;139264;-76
2023/01/24 04:42:46;;;;;;;69.90;32.80;;;;;;;1.88;91.44;102297.38;103557;1254;108657;-77
2023/01/24 04:45:13;;;;;;;68.90;34.20;;;;;;;1.89;91.38;102297.91;103426;1254;96335;-77
2023/01/24 04:47:41;;;;;;;70.80;33.30;;;;;;;1.90;91.29;102299.48;103392;1256;138388;-77
2023/01/24 04:50:12;;;;;;;69.20;33.20;;;;;;;1.91;91.30;102300.71;103473;1253;107880;-76
2023/01/24 04:52:39;;;;;;;61.70;32.80;;;;;;;1.89;91.08;102299.83;103509;1255;138601;-76
2023/01/24 04:55:09;;;;;;;67.80;33.50;;;;;;;1.89;91.09;102303.39;103513;1254;107080;-76
2023/01/24 04:57:37;;;;;;;69.60;33.10;;;;;;;1.89;91.29;102301.52;103502;1251;96511;-76
2023/01/24 05:00:07;;;;;;;68.20;32.90;;;;;;;1.91;91.22;102301.05;103363;1256;139951;-77
2023/01/24 05:02:35;;;;;;;69.70;33.80;;;;;;;1.90;91.24;102306.02;103928;1255;106874;-78
2023/01/24 05:05:02;;;;;;;70.90;32.00;;;;;;;1.92;91.25;102305.92;103292;1257;138356;-78
2023/01/24 05:07:29;;;;;;;66.00;32.50;;;;;;;1.92;91.17;102303.16;103529;1251;108304;-76
2023/01/24 05:10:00;;;;;;;65.90;32.00;;;;;;;1.89;91.09;102300.84;103535;1256;96453;-76
2023/01/24 05:12:28;;;;;;;65.10;31.80;;;;;;;1.87;91.04;102304.02;102709;1251;1003247;-77
2023/01/24 05:14:58;;;;;;;71.30;33.10;;;;;;;1.86;91.21;102302.77;103583;1252;108350;-77
2023/01/24 05:17:25;;;;;;;71.60;32.20;;;;;;;1.86;91.39;102307.09;103399;1254;138305;-77
2023/01/24 05:19:54;;;;;;;67.20;32.10;;;;;;;1.88;91.29;102308.00;103445;1252;107320;-77
2023/01/24 05:22:21;;;;;;;62.10;31.30;;;;;;;1.89;91.28;102308.02;103325;1252;138403;-77
2023/01/24 05:24:49;;;;;;;67.10;32.50;;;;;;;1.89;91.31;102308.70;103550;1253;108822;-77
2023/01/24 05:27:17;;;;;;;62.00;31.90;;;;;;;1.89;91.22;102309.73;103426;1256;107738;-76
2023/01/24 05:29:49;;;;;;;66.70;32.30;;;;;;;1.89;91.45;102309.40;103426;1256;138834;-77
2023/01/24 05:32:16;;;;;;;59.10;30.40;;;;;;;1.89;91.27;102309.23;103394;1252;106776;-77
2023/01/24 05:34:43;;;;;;;60.90;31.60;;;;;;;1.89;91.41;102312.66;102585;1256;1002970;-77
2023/01/24 05:37:10;;;;;;;66.60;31.10;;;;;;;1.89;91.34;102312.33;103423;1256;109733;-77
2023/01/24 05:39:39;;;;;;;60.30;32.30;;;;;;;1.89;91.40;102314.22;103481;1256;108883;-77
2023/01/24 05:42:07;;;;;;;66.70;33.70;;;;;;;1.91;91.47;102318.06;103408;1256;138210;-77
2023/01/24 05:44:39;;;;;;;62.80;31.40;;;;;;;1.92;91.33;102320.33;103482;1251;109089;-77
2023/01/24 05:47:06;;;;;;;64.80;31.90;;;;;;;1.93;91.40;102321.23;103288;1254;138225;-77
2023/01/24 05:49:36;;;;;;;63.70;32.00;;;;;;;1.94;91.33;102323.83;102807;1250;1002956;-77
2023/01/24 05:52:03;;;;;;;66.20;32.70;;;;;;;1.94;91.45;102327.27;103463;1254;108061;-77
2023/01/24 05:54:51;;;;;;;63.10;31.10;;;;;;;1.93;91.17;102329.62;102791;1256;1003657;-77
2023/01/24 05:57:30;;;;;;;64.50;31.90;;;;;;;1.92;91.37;102333.39;103412;1254;107789;-77
2023/01/24 06:00:14;;;;;;;57.70;29.70;;;;;;;1.93;91.32;102333.75;103324;1251;138319;-77
2023/01/24 06:02:43;;;;;;;61.00;31.20;;;;;;;1.93;91.37;102333.08;103539;1255;109408;-78
2023/01/24 06:05:11;;;;;;;68.00;34.50;;;;;;;1.95;91.47;102331.26;103563;1256;138452;-78
2023/01/24 06:07:38;;;;;;;61.30;31.80;;;;;;;1.97;91.51;102325.83;103463;1257;96440;-78
2023/01/24 06:10:07;;;;;;;62.70;30.50;;;;;;;1.99;91.42;102329.34;103499;1251;106634;-78
2023/01/24 06:12:44;;;;;;;68.00;33.40;;;;;;;2.00;91.49;102329.37;102769;1251;1002810;-78
2023/01/24 06:15:13;;;;;;;61.60;32.00;;;;;;;2.01;91.45;102331.13;103441;1251;109613;-78
2023/01/24 06:17:40;;;;;;;68.20;34.00;;;;;;;2.02;91.35;102329.79;102643;1251;1003019;-78
2023/01/24 06:20:12;;;;;;;60.20;31.70;;;;;;;2.02;91.37;102332.53;103460;1256;96641;-78
2023/01/24 06:22:46;;;;;;;65.10;32.40;;;;;;;2.02;91.29;102339.75;103407;1251;138335;-77
2023/01/24 06:25:23;;;;;;;61.40;31.90;;;;;;;2.04;91.25;102342.58;103623;1256;96413;-77
2023/01/24 06:27:52;;;;;;;64.60;32.10;;;;;;;2.03;91.27;102338.77;103521;1255;109408;-77
2023/01/24 06:30:21;;;;;;;67.20;32.60;;;;;;;2.04;91.24;102339.29;103334;1251;138638;-77
2023/01/24 06:33:03;;;;;;;62.90;32.70;;;;;;;2.04;91.34;102341.36;103638;1251;96423;-77
2023/01/24 06:35:37;;;;;;;65.80;32.10;;;;;;;2.05;91.18;102347.58;103503;1256;138906;-77
2023/01/24 06:38:05;;;;;;;64.00;30.40;;;;;;;2.05;91.24;102346.05;103525;1257;96534;-78
2023/01/24 06:40:33;;;;;;;66.20;31.50;;;;;;;2.04;91.14;102344.29;103388;1256;138475;-77
2023/01/24 06:43:03;;;;;;;65.90;32.20;;;;;;;2.03;91.07;102353.52;102722;1257;1003378;-77
2023/01/24 06:45:30;;;;;;;69.90;32.70;;;;;;;2.03;91.26;102355.91;102798;1251;1003448;-77
2023/01/24 06:47:57;;;;;;;64.00;31.40;;;;;;;2.05;91.42;102361.31;103351;1254;138417;-76
2023/01/24 06:50:29;;;;;;;66.10;33.10;;;;;;;2.08;91.64;102369.15;103501;1251;96430;-78
2023/01/24 06:52:56;;;;;;;67.60;33.20;;;;;;;2.15;92.16;102373.50;103370;1254;139041;-80
2023/01/24 06:55:24;;;;;;;69.70;33.70;;;;;;;2.19;92.14;102374.53;103383;1255;107194;-80
2023/01/24 06:57:56;;;;;;;69.50;32.30;;;;;;;2.21;91.93;102374.24;103533;1251;97095;-76
2023/01/24 07:00:23;;;;;;;71.10;33.30;;;;;;;2.20;91.40;102377.10;102751;1251;1003162;-77
2023/01/24 07:02:57;;;;;;;66.10;33.00;;;;;;;2.19;91.27;102376.06;103383;1251;96310;-76
2023/01/24 07:05:24;;;;;;;68.30;32.60;;;;;;;2.18;91.25;102375.33;103384;1254;138130;-81
2023/01/24 07:07:51;;;;;;;67.80;34.20;;;;;;;2.19;91.28;102370.39;103483;1251;107875;-78
2023/01/24 07:10:18;;;;;;;72.90;33.80;;;;;;;2.20;91.33;102370.60;103329;1251;141874;-79
2023/01/24 07:12:46;;;;;;;68.60;33.80;;;;;;;2.21;91.20;102372.02;102745;1251;1003296;-78
2023/01/24 07:15:13;;;;;;;72.20;34.40;;;;;;;2.22;91.25;102372.73;103595;1255;96491;-78
2023/01/24 07:17:43;;;;;;;65.70;32.60;;;;;;;2.23;91.26;102370.19;103427;1250;138055;-79
2023/01/24 07:20:13;;;;;;;70.40;33.20;;;;;;;2.24;91.39;102368.52;104941;1251;107366;-80
2023/01/24 07:22:42;;;;;;;62.90;32.40;;;;;;;2.25;91.12;102374.36;104824;1251;138637;-79
2023/01/24 07:25:15;;;;;;;63.00;31.80;;;;;;;2.25;91.09;102374.88;104777;1250;106323;-81
2023/01/24 07:27:44;;;;;;;69.50;32.90;;;;;;;2.26;90.84;102369.59;103541;1251;96525;-80
2023/01/24 07:30:13;;;;;;;66.40;32.70;;;;;;;2.25;90.86;102368.89;103655;1251;138004;-82
2023/01/24 07:32:40;;;;;;;63.40;32.20;;;;;;;2.27;90.87;102364.98;103523;1251;106036;-79
2023/01/24 07:35:11;;;;;;;62.10;32.00;;;;;;;2.30;91.18;102364.92;103481;1254;138982;-80
2023/01/24 07:37:39;;;;;;;68.20;32.20;;;;;;;2.34;91.07;102363.88;102944;1251;1002574;-80
2023/01/24 07:40:08;;;;;;;72.30;33.20;;;;;;;2.36;90.99;102366.02;103451;1251;96334;-79
2023/01/24 07:42:35;;;;;;;67.70;33.50;;;;;;;2.37;90.80;102365.20;103474;1253;109332;-77
2023/01/24 07:45:02;;;;;;;68.00;32.50;;;;;;;2.39;90.97;102371.80;103444;1257;107448;-79
2023/01/24 07:47:30;;;;;;;73.40;34.30;;;;;;;2.42;91.01;102365.55;102699;1251;1003658;-78
2023/01/24 07:49:58;;;;;;;61.20;32.30;;;;;;;2.45;90.78;102365.98;103451;1251;107307;-77
2023/01/24 07:52:25;;;;;;;61.20;32.50;;;;;;;2.48;90.74;102365.41;103417;1251;140932;-78
2023/01/24 07:54:52;;;;;;;62.60;32.10;;;;;;;2.52;90.76;102365.35;103638;1251;109260;-77
2023/01/24 07:57:19;;;;;;;64.50;33.40;;;;;;;2.54;90.62;102370.79;103408;1254;107198;-78
2023/01/24 07:59:46;;;;;;;62.20;32.80;;;;;;;2.58;90.78;102372.26;103457;1254;138491;-78
2023/01/24 08:02:14;;;;;;;63.20;31.60;;;;;;;2.61;90.91;102372.55;103516;1254;107504;-79
2023/01/24 08:04:41;;;;;;;63.00;33.50;;;;;;;2.63;90.61;102376.23;103425;1254;138444;-78
2023/01/24 08:07:18;;;;;;;65.80;33.20;;;;;;;2.66;90.53;102377.52;103487;1252;110030;-78
2023/01/24 08:09:45;;;;;;;61.70;32.10;;;;;;;2.68;90.43;102378.11;103506;1251;107632;-79
2023/01/24 08:12:12;;;;;;;60.50;32.30;;;;;;;2.70;90.21;102380.08;103642;1250;138434;-81
2023/01/24 08:14:39;;;;;;;64.10;31.30;;;;;;;2.71;90.39;102379.80;103551;1252;107734;-79
2023/01/24 08:17:06;;;;;;;60.70;31.50;;;;;;;2.73;90.21;102380.36;103353;1251;138412;-78
2023/01/24 08:19:35;;;;;;;59.80;30.60;;;;;;;2.75;90.31;102382.64;103428;1254;109490;-79
2023/01/24 08:22:22;;;;;;;60.10;31.60;;;;;;;2.77;90.24;102382.39;103274;1254;138668;-78
2023/01/24 08:24:49;;;;;;;59.20;31.70;;;;;;;2.81;90.09;102382.15;103485;1251;96450;-76
2023/01/24 08:27:16;;;;;;;56.20;32.20;;;;;;;2.83;90.01;102379.48;103440;1249;107423;-77
2023/01/24 08:29:44;;;;;;;60.20;31.20;;;;;;;2.86;90.12;102378.89;103566;1254;138406;-78
2023/01/24 08:32:11;;;;;;;61.20;31.90;;;;;;;2.91;89.92;102385.60;103392;1254;110110;-77
2023/01/24 08:34:38;;;;;;;62.20;31.00;;;;;;;2.94;90.03;102387.44;103412;1251;138703;-77
2023/01/24 08:37:07;;;;;;;62.60;32.10;;;;;;;2.95;89.70;102385.23;102695;1251;1002990;-81
2023/01/24 08:39:34;;;;;;;64.30;33.40;;;;;;;2.97;89.79;102386.83;103454;1251;107423;-81
2023/01/24 08:42:02;;;;;;;60.60;33.30;;;;;;;2.99;89.90;102380.03;103299;1251;139948;-81
2023/01/24 08:44:29;;;;;;;70.20;32.30;;;;;;;3.02;89.77;102379.94;103469;1251;110155;-79
2023/01/24 08:46:56;;;;;;;63.90;32.30;;;;;;;3.06;90.02;102379.73;102471;1254;1002885;-81
2023/01/24 08:49:23;;;;;;;60.80;33.20;;;;;;;3.10;89.72;102380.05;102546;1251;1002933;-79
2023/01/24 08:51:58;;;;;;;65.00;33.10;;;;;;;3.14;89.35;102379.83;103466;1251;108154;-79
2023/01/24 08:54:25;;;;;;;64.10;34.40;;;;;;;3.18;89.45;102382.34;103249;1251;138246;-79
2023/01/24 08:56:52;;;;;;;67.40;34.90;;;;;;;3.20;89.48;102383.63;103514;1257;109293;-81
2023/01/24 08:59:20;;;;;;;68.50;34.50;;;;;;;3.24;89.50;102384.45;103356;1251;138491;-80
2023/01/24 09:01:47;;;;;;;67.90;34.70;;;;;;;3.28;89.29;102385.78;103507;1251;96426;-79
2023/01/24 09:04:14;;;;;;;66.40;34.40;;;;;;;3.32;89.34;102389.67;103422;1251;138587;-82
2023/01/24 09:06:41;;;;;;;63.00;33.90;;;;;;;3.35;89.34;102390.96;103456;1254;96421;-81
2023/01/24 09:09:08;;;;;;;62.40;33.90;;;;;;;3.36;89.01;102392.55;103471;1251;111586;-77
2023/01/24 09:11:36;;;;;;;65.30;34.70;;;;;;;3.34;88.97;102390.44;103397;1254;139516;-82
2023/01/24 09:14:03;;;;;;;72.50;36.40;;;;;;;3.37;88.85;102390.17;102817;1250;1003789;-82
2023/01/24 09:16:30;;;;;;;70.20;35.20;;;;;;;3.37;88.38;102388.80;103490;1256;139153;-81
2023/01/24 09:18:57;;;;;;;69.40;34.80;;;;;;;3.36;88.71;102382.23;103579;1251;96903;-80
2023/01/24 09:21:25;;;;;;;71.50;37.10;;;;;;;3.37;88.59;102380.71;103398;1254;107995;-81
2023/01/24 09:23:53;;;;;;;73.80;36.40;;;;;;;3.40;88.77;102377.88;103263;1251;138348;-81
2023/01/24 09:26:20;;;;;;;67.30;34.90;;;;;;;3.42;88.88;102377.29;103545;1251;96411;-81
2023/01/24 09:28:47;;;;;;;71.30;35.80;;;;;;;3.45;88.75;102371.37;103373;1251;139146;-82
2023/01/24 09:31:15;;;;;;;66.70;35.00;;;;;;;3.48;88.59;102370.27;103524;1254;96574;-82
2023/01/24 09:33:42;;;;;;;67.70;35.60;;;;;;;3.53;88.40;102364.38;103612;1251;110587;-80
2023/01/24 09:36:24;;;;;;;67.50;34.20;;;;;;;3.57;88.35;102365.50;102702;1254;1003448;-81
2023/01/24 09:38:52;;;;;;;67.80;34.50;;;;;;;3.58;88.30;102364.70;103628;1251;96452;-82
2023/01/24 09:41:44;;;;;;;73.00;36.70;;;;;;;3.63;88.02;102369.68;103433;1251;138008;-81
2023/01/24 09:44:22;;;;;;;71.90;36.90;;;;;;;3.64;88.03;102372.12;102802;1259;1002997;-81
2023/01/24 09:46:49;;;;;;;;;;;;;;;3.64;87.91;102366.45;103434;1251;138718;-82
2023/01/24 09:49:23;;;;;;;62.80;34.00;;;;;;;3.62;87.63;102368.09;103407;1251;107953;-84
2023/01/24 09:51:54;;;;;;;62.20;32.20;;;;;;;3.62;87.84;102368.09;103583;1251;95292;-82
2023/01/24 09:54:35;;;;;;;64.80;33.70;;;;;;;3.62;87.66;102372.40;103468;1254;137169;-80
2023/01/24 09:57:07;;;;;;;62.60;33.00;;;;;;;3.62;87.75;102374.29;103453;1251;96440;-79
2023/01/24 09:59:40;;;;;;;65.60;33.50;;;;;;;3.62;87.58;102379.27;102867;1254;138403;-82
2023/01/24 10:02:18;;;;;;;61.20;33.00;;;;;;;3.60;87.50;102376.30;103197;1251;105560;-81
2023/01/24 10:04:47;;;;;;;61.60;32.60;;;;;;;3.58;87.27;102379.98;103832;1251;138365;-82
2023/01/24 10:07:43;;;;;;;65.00;35.10;;;;;;;3.55;87.24;102384.37;102356;1251;1002878;-82
2023/01/24 10:10:26;;;;;;;88.70;47.90;;;;;;;3.52;87.24;102388.08;102583;1257;140664;-75
2023/01/24 10:13:03;;;;;;;59.40;31.20;;;;;;;3.52;87.37;102386.34;102856;1257;109542;-81
2023/01/24 10:15:46;;;;;;;60.80;33.00;;;;;;;3.50;87.46;102389.58;102385;1259;107981;-81
2023/01/24 10:18:26;;;;;;;62.80;32.30;;;;;;;3.48;87.09;102384.68;102185;1257;139973;-82
2023/01/24 10:21:09;;;;;;;62.40;32.00;;;;;;;3.46;87.07;102386.01;102429;1256;107479;-82
2023/01/24 10:23:41;;;;;;;61.00;31.00;;;;;;;3.47;87.30;102381.21;102334;1257;138502;-83
2023/01/24 10:26:18;;;;;;;60.60;33.10;;;;;;;3.46;87.17;102378.97;102538;1257;109180;-81
2023/01/24 10:28:49;;;;;;;60.70;31.60;;;;;;;3.46;87.43;102378.27;102556;1259;140586;-76
2023/01/24 10:31:21;;;;;;;60.30;31.60;;;;;;;3.47;87.37;102378.10;102757;1260;96443;-81
2023/01/24 10:33:50;;;;;;;58.80;32.20;;;;;;;3.47;87.24;102377.26;103132;1257;139529;-79
2023/01/24 10:36:25;;;;;;;58.10;32.30;;;;;;;3.47;87.18;102376.58;103414;1256;97476;-79
2023/01/24 10:38:52;;;;;;;61.60;34.10;;;;;;;3.48;87.13;102376.08;103228;1257;109889;-80
2023/01/24 10:41:23;;;;;;;61.30;32.10;;;;;;;3.48;87.43;102382.64;102960;1260;138332;-80
2023/01/24 10:43:56;;;;;;;60.00;30.40;;;;;;;3.49;87.29;102378.00;103124;1260;97054;-81
2023/01/24 10:46:43;;;;;;;60.20;32.00;;;;;;;3.47;87.04;102379.32;103223;1256;138197;-81
2023/01/24 10:49:16;;;;;;;65.00;31.70;;;;;;;3.46;87.28;102371.56;103473;1257;96438;-81
2023/01/24 10:51:43;;;;;;;61.20;31.50;;;;;;;3.46;87.18;102371.55;103408;1256;138122;-77
2023/01/24 10:54:22;;;;;;;64.00;31.70;;;;;;;3.46;87.16;102366.41;103375;1253;107902;-78
2023/01/24 10:56:49;;;;;;;61.50;31.40;;;;;;;3.46;87.13;102366.73;103492;1254;96430;-78
2023/01/24 10:59:17;;;;;;;59.60;30.30;;;;;;;3.45;86.91;102369.63;102620;1254;1002919;-78
2023/01/24 11:01:48;;;;;;;52.80;28.30;;;;;;;3.44;86.95;102368.75;103519;1253;96264;-80
2023/01/24 11:04:20;;;;;;;58.60;28.40;;;;;;;3.45;86.86;102368.10;103372;1256;138182;-81
2023/01/24 11:06:50;;;;;;;50.80;28.00;;;;;;;3.45;86.76;102369.13;103434;1257;107197;-81
2023/01/24 11:09:20;;;;;;;50.00;27.80;;;;;;;3.45;86.72;102368.95;103552;1257;96961;-80
2023/01/24 11:11:51;;;;;;;52.40;27.90;;;;;;;3.44;86.65;102363.94;102731;1257;1003256;-80
2023/01/24 11:14:21;;;;;;;55.20;29.40;;;;;;;3.43;86.73;102359.79;103490;1253;96363;-80
2023/01/24 11:16:50;;;;;;;56.70;29.60;;;;;;;3.45;86.53;102359.32;102676;1256;1002915;-80
2023/01/24 11:19:31;;;;;;;56.30;30.00;;;;;;;3.46;86.70;102349.90;103444;1256;107180;-81
2023/01/24 11:21:59;;;;;;;64.40;34.10;;;;;;;3.51;86.98;102352.25;103397;1253;138439;-80
2023/01/24 11:24:27;;;;;;;71.70;39.00;;;;;;;3.52;86.67;102354.20;103399;1253;108023;-80
2023/01/24 11:26:57;;;;;;;60.10;34.00;;;;;;;3.53;86.87;102355.77;103520;1253;96491;-81
2023/01/24 11:29:25;;;;;;;59.30;31.90;;;;;;;3.52;86.74;102359.19;103480;1253;137296;-81
2023/01/24 11:31:54;;;;;;;62.30;31.60;;;;;;;3.52;86.57;102359.35;103527;1254;105750;-78
2023/01/24 11:34:43;;;;;;;61.00;31.20;;;;;;;3.52;86.55;102358.48;103418;1253;138237;-80
2023/01/24 11:37:23;;;;;;;67.00;32.60;;;;;;;3.49;86.40;102354.10;102810;1253;1003370;-79
2023/01/24 11:40:00;;;;;;;65.40;32.30;;;;;;;3.47;86.32;102355.59;103507;1253;139494;-80
2023/01/24 11:42:35;;;;;;;63.50;31.60;;;;;;;3.45;86.31;102352.11;103609;1253;109298;-81
2023/01/24 11:45:25;;;;;;;63.70;32.10;;;;;;;3.45;86.86;102346.60;103584;1253;107708;-80
2023/01/24 11:48:03;;;;;;;65.10;31.70;;;;;;;3.46;86.52;102349.53;103418;1253;97071;-78
2023/01/24 11:50:41;;;;;;;64.70;32.50;;;;;;;3.46;86.66;102344.39;103466;1253;105979;-77
2023/01/24 11:53:26;;;;;;;62.20;32.00;;;;;;;3.48;86.68;102342.73;103368;1256;138152;-78